createdAt,value
2023-04-14T00:00:10.300Z,11.10
2023-04-14T00:02:37.210Z,11.10
2023-04-14T00:05:04.893Z,11.10
2023-04-14T00:07:33.841Z,11.10
2023-04-14T00:10:03.057Z,11.10
2023-04-14T00:12:29.884Z,11.10
2023-04-14T00:14:56.636Z,11.00
2023-04-14T00:17:23.429Z,11.00
2023-04-14T00:19:52.660Z,11.00
2023-04-14T00:22:22.235Z,11.10
2023-04-14T00:24:50.822Z,11.00
2023-04-14T00:27:17.598Z,11.00
2023-04-14T00:29:44.341Z,11.00
2023-04-14T00:32:16.767Z,11.00
2023-04-14T00:34:43.521Z,11.00
2023-04-14T00:37:10.565Z,10.90
2023-04-14T00:39:39.664Z,10.90
2023-04-14T00:42:08.537Z,10.90
2023-04-14T00:44:35.383Z,10.90
2023-04-14T00:47:02.257Z,10.90
2023-04-14T00:49:29.025Z,10.80
2023-04-14T00:51:57.054Z,10.70
2023-04-14T00:54:26.572Z,10.70
2023-04-14T00:56:58.004Z,10.70
2023-04-14T00:59:28.851Z,10.70
2023-04-14T01:01:56.030Z,10.70
2023-04-14T01:04:23.215Z,10.80
2023-04-14T01:06:54.951Z,10.70
2023-04-14T01:09:21.751Z,10.70
2023-04-14T01:12:09.929Z,10.70
2023-04-14T01:15:04.201Z,10.70
2023-04-14T01:17:37.148Z,10.70
2023-04-14T01:20:27.444Z,10.70
2023-04-14T01:23:31.973Z,10.70
2023-04-14T01:26:20.136Z,10.70
2023-04-14T01:29:08.073Z,10.70
2023-04-14T01:31:41.514Z,10.70
2023-04-14T01:34:25.425Z,10.80
2023-04-14T01:36:57.190Z,10.70
2023-04-14T01:39:33.116Z,10.70
2023-04-14T01:41:59.915Z,10.70
2023-04-14T01:44:27.021Z,10.70
2023-04-14T01:46:56.596Z,10.70
2023-04-14T01:49:23.456Z,10.70
2023-04-14T01:51:55.416Z,10.80
2023-04-14T01:54:22.195Z,10.70
2023-04-14T01:56:51.169Z,10.70
2023-04-14T01:59:19.994Z,10.70
2023-04-14T02:01:50.472Z,10.70
2023-04-14T02:04:19.043Z,10.70
2023-04-14T02:06:45.964Z,10.60
2023-04-14T02:09:13.223Z,10.60
2023-04-14T02:11:43.330Z,10.60
2023-04-14T02:14:10.430Z,10.50
2023-04-14T02:16:37.281Z,10.50
2023-04-14T02:19:04.725Z,10.40
2023-04-14T02:21:31.595Z,10.30
2023-04-14T02:23:58.333Z,10.30
2023-04-14T02:26:28.137Z,10.20
2023-04-14T02:29:03.000Z,10.20
2023-04-14T02:31:30.808Z,10.20
2023-04-14T02:34:00.150Z,10.20
2023-04-14T02:36:33.992Z,10.10
2023-04-14T02:39:08.654Z,10.10
2023-04-14T02:41:35.776Z,10.10
2023-04-14T02:44:09.014Z,10.20
2023-04-14T02:46:37.963Z,10.20
2023-04-14T02:49:06.203Z,10.30
2023-04-14T02:51:36.617Z,10.30
2023-04-14T02:54:06.103Z,10.30
2023-04-14T02:56:35.668Z,10.30
2023-04-14T02:59:02.887Z,10.30
2023-04-14T03:01:33.268Z,10.30
2023-04-14T03:04:07.350Z,10.30
2023-04-14T03:06:36.525Z,10.30
2023-04-14T03:09:05.395Z,10.30
2023-04-14T03:11:35.409Z,10.30
2023-04-14T03:14:02.186Z,10.30
2023-04-14T03:16:31.554Z,10.30
2023-04-14T03:19:03.528Z,10.30
2023-04-14T03:21:33.597Z,10.40
2023-04-14T03:24:00.750Z,10.40
2023-04-14T03:26:27.541Z,10.30
2023-04-14T03:28:54.291Z,10.30
2023-04-14T03:31:21.468Z,10.30
2023-04-14T03:33:48.663Z,10.30
2023-04-14T03:36:15.701Z,10.30
2023-04-14T03:38:44.594Z,10.30
2023-04-14T03:41:11.332Z,10.20
2023-04-14T03:43:38.104Z,10.20
2023-04-14T03:46:06.242Z,10.20
2023-04-14T03:48:34.543Z,10.20
2023-04-14T03:51:05.019Z,10.20
2023-04-14T03:53:31.950Z,10.20
2023-04-14T03:56:01.073Z,10.10
2023-04-14T03:58:27.860Z,10.10
2023-04-14T04:00:54.619Z,10.10
2023-04-14T04:03:21.873Z,10.10
2023-04-14T04:05:48.721Z,10.10
2023-04-14T04:08:21.033Z,10.20
2023-04-14T04:10:47.789Z,10.10
2023-04-14T04:13:16.976Z,10.20
2023-04-14T04:15:48.598Z,10.10
2023-04-14T04:18:15.861Z,10.10
2023-04-14T04:20:42.585Z,10.10
2023-04-14T04:23:09.381Z,10.10
2023-04-14T04:25:36.635Z,10.10
2023-04-14T04:28:03.490Z,10.00
2023-04-14T04:30:30.637Z,10.00
2023-04-14T04:33:03.931Z,10.00
2023-04-14T04:35:35.783Z,9.90
2023-04-14T04:38:05.931Z,9.90
2023-04-14T04:40:41.296Z,10.00
2023-04-14T04:43:08.210Z,9.90
2023-04-14T04:45:58.272Z,9.80
2023-04-14T04:48:25.459Z,9.90
2023-04-14T04:50:54.751Z,9.80
2023-04-14T04:53:23.856Z,9.80
2023-04-14T04:55:50.680Z,9.80
2023-04-14T04:58:19.986Z,9.80
2023-04-14T05:00:49.328Z,9.90
2023-04-14T05:03:16.639Z,9.90
2023-04-14T05:05:43.527Z,9.90
2023-04-14T05:08:13.800Z,10.00
2023-04-14T05:10:46.656Z,10.00
2023-04-14T05:13:13.436Z,9.90
2023-04-14T05:15:40.437Z,10.00
2023-04-14T05:18:07.389Z,10.10
2023-04-14T05:20:36.959Z,10.00
2023-04-14T05:23:03.698Z,10.00
2023-04-14T05:25:32.673Z,10.10
2023-04-14T05:27:59.430Z,10.00
2023-04-14T05:30:26.621Z,10.00
2023-04-14T05:32:53.482Z,10.00
2023-04-14T05:35:20.378Z,10.00
2023-04-14T05:37:49.272Z,10.00
2023-04-14T05:40:16.090Z,10.10
2023-04-14T05:42:42.838Z,10.10
2023-04-14T05:45:10.049Z,10.20
2023-04-14T05:47:37.283Z,10.20
2023-04-14T05:50:04.430Z,10.30
2023-04-14T05:55:02.976Z,10.40
2023-04-14T05:57:32.261Z,9.90
2023-04-14T06:00:01.659Z,10.40
2023-04-14T06:02:28.744Z,10.50
2023-04-14T06:04:56.385Z,10.40
2023-04-14T06:07:24.279Z,10.40
2023-04-14T06:09:53.528Z,10.40
2023-04-14T06:12:20.781Z,10.50
2023-04-14T06:14:51.896Z,10.60
2023-04-14T06:17:21.206Z,10.60
2023-04-14T06:19:50.750Z,10.70
2023-04-14T06:22:19.862Z,10.70
2023-04-14T06:24:46.812Z,10.70
2023-04-14T06:29:43.504Z,10.90
2023-04-14T06:32:10.696Z,10.90
2023-04-14T06:34:39.702Z,10.80
2023-04-14T06:37:06.788Z,10.90
2023-04-14T06:39:33.637Z,10.90
2023-04-14T06:42:01.006Z,10.90
2023-04-14T06:44:30.378Z,11.00
2023-04-14T06:46:57.299Z,11.00
2023-04-14T06:49:26.310Z,11.10
2023-04-14T06:51:53.070Z,11.20
2023-04-14T06:54:22.067Z,11.20
2023-04-14T06:56:48.804Z,11.30
2023-04-14T06:59:15.625Z,11.40
2023-04-14T07:01:44.772Z,11.40
2023-04-14T07:04:14.057Z,11.50
2023-04-14T07:06:43.011Z,11.60
2023-04-14T07:09:09.768Z,11.60
2023-04-14T07:11:40.445Z,11.60
2023-04-14T07:14:07.189Z,11.60
2023-04-14T07:16:33.987Z,11.70
2023-04-14T07:19:00.961Z,11.70
2023-04-14T07:21:27.966Z,11.70
2023-04-14T07:23:57.232Z,11.80
2023-04-14T07:26:26.655Z,11.90
2023-04-14T07:28:55.962Z,12.00
2023-04-14T07:31:22.829Z,12.00
2023-04-14T07:33:49.673Z,12.00
2023-04-14T07:36:18.660Z,12.10
2023-04-14T07:38:45.734Z,12.20
2023-04-14T07:41:12.533Z,12.30
2023-04-14T07:43:40.174Z,12.30
2023-04-14T07:46:09.772Z,12.50
2023-04-14T07:48:37.217Z,12.60
2023-04-14T07:51:06.795Z,12.70
2023-04-14T07:53:40.478Z,12.80
2023-04-14T07:56:09.932Z,12.90
2023-04-14T07:58:39.206Z,13.00
2023-04-14T08:01:06.462Z,13.00
2023-04-14T08:03:33.460Z,13.10
2023-04-14T08:06:02.494Z,13.20
2023-04-14T08:08:29.381Z,13.30
2023-04-14T08:10:56.131Z,13.40
2023-04-14T08:13:27.395Z,13.40
2023-04-14T08:15:56.751Z,13.50
2023-04-14T08:18:23.608Z,13.50
2023-04-14T08:20:52.611Z,13.60
2023-04-14T08:23:20.989Z,13.70
2023-04-14T08:25:48.072Z,13.80
2023-04-14T08:28:15.018Z,13.90
2023-04-14T08:30:41.952Z,14.00
2023-04-14T08:33:08.723Z,14.00
2023-04-14T08:35:42.041Z,14.10
2023-04-14T08:38:09.710Z,14.10
2023-04-14T08:40:43.330Z,14.20
2023-04-14T08:43:12.998Z,14.30
2023-04-14T08:45:40.795Z,14.30
2023-04-14T08:48:12.179Z,14.40
2023-04-14T08:50:45.404Z,14.40
2023-04-14T08:53:12.504Z,14.30
2023-04-14T08:55:42.412Z,14.30
2023-04-14T08:58:12.385Z,14.30
2023-04-14T09:00:43.949Z,14.30
2023-04-14T09:03:16.081Z,14.40
2023-04-14T09:05:45.127Z,14.30
2023-04-14T09:08:11.896Z,14.40
2023-04-14T09:10:38.803Z,14.50
2023-04-14T09:13:06.655Z,14.60
2023-04-14T09:15:36.029Z,14.70
2023-04-14T09:18:02.931Z,14.80
2023-04-14T09:20:38.656Z,14.80
2023-04-14T09:23:09.712Z,14.80
2023-04-14T09:25:38.372Z,14.80
2023-04-14T09:28:05.132Z,14.70
2023-04-14T09:30:34.375Z,14.60
2023-04-14T09:33:10.752Z,14.60
2023-04-14T09:35:50.402Z,14.60
2023-04-14T09:38:32.592Z,14.60
2023-04-14T09:41:01.558Z,14.60
2023-04-14T09:43:29.260Z,14.70
2023-04-14T09:45:57.151Z,14.70
2023-04-14T09:48:26.074Z,14.70
2023-04-14T09:51:05.739Z,14.70
2023-04-14T09:53:36.968Z,14.80
2023-04-14T09:56:08.544Z,14.80
2023-04-14T09:58:46.548Z,14.90
2023-04-14T10:01:15.017Z,14.90
2023-04-14T10:03:46.436Z,14.90
2023-04-14T10:06:21.226Z,14.90
2023-04-14T10:09:01.303Z,14.90
2023-04-14T10:11:35.360Z,14.90
2023-04-14T10:14:06.298Z,15.00
2023-04-14T10:16:33.790Z,15.00
2023-04-14T10:19:03.732Z,15.00
2023-04-14T10:21:30.906Z,15.10
2023-04-14T10:23:57.835Z,15.20
2023-04-14T10:26:24.906Z,15.10
2023-04-14T10:28:52.954Z,15.10
2023-04-14T10:31:37.064Z,15.20
2023-04-14T10:34:11.219Z,15.30
2023-04-14T10:36:38.513Z,15.40
2023-04-14T10:39:08.102Z,15.60
2023-04-14T10:41:43.901Z,15.70
2023-04-14T10:44:28.892Z,15.90
2023-04-14T10:47:03.010Z,16.10
2023-04-14T10:49:39.213Z,16.30
2023-04-14T10:52:13.486Z,16.40
2023-04-14T10:54:57.240Z,16.40
2023-04-14T10:57:27.955Z,16.40
2023-04-14T10:59:55.951Z,16.70
2023-04-14T11:05:09.243Z,16.70
2023-04-14T11:07:46.291Z,17.00
2023-04-14T11:10:24.458Z,17.40
2023-04-14T11:13:05.473Z,18.00
2023-04-14T11:15:48.754Z,18.60
2023-04-14T11:18:30.053Z,19.20
2023-04-14T11:21:10.617Z,20.10
2023-04-14T11:23:37.555Z,20.90
2023-04-14T11:26:13.432Z,21.00
2023-04-14T11:28:42.044Z,21.00
2023-04-14T11:31:12.938Z,21.20
2023-04-14T11:33:41.571Z,21.50
2023-04-14T11:36:10.352Z,22.30
2023-04-14T11:38:40.840Z,22.80
2023-04-14T11:41:08.409Z,22.10
2023-04-14T11:43:37.591Z,21.60
2023-04-14T11:46:05.597Z,21.20
2023-04-14T11:48:32.426Z,20.30
2023-04-14T11:51:03.906Z,20.10
2023-04-14T11:53:31.013Z,21.40
2023-04-14T11:56:00.914Z,22.50
2023-04-14T11:58:28.811Z,22.70
2023-04-14T12:00:57.870Z,22.90
2023-04-14T12:03:29.375Z,22.40
2023-04-14T12:06:01.513Z,21.80
2023-04-14T12:08:34.289Z,20.70
2023-04-14T12:11:16.408Z,19.60
2023-04-14T12:13:47.067Z,19.20
2023-04-14T12:16:16.384Z,19.10
2023-04-14T12:18:45.908Z,19.00
2023-04-14T12:21:17.075Z,18.70
2023-04-14T12:23:48.481Z,18.50
2023-04-14T12:26:17.540Z,18.30
2023-04-14T12:28:45.003Z,18.00
2023-04-14T12:31:11.905Z,17.80
2023-04-14T12:33:40.958Z,17.50
2023-04-14T12:36:10.201Z,17.10
2023-04-14T12:38:39.920Z,16.80
2023-04-14T12:41:06.809Z,16.70
2023-04-14T12:43:40.701Z,16.60
2023-04-14T12:46:08.075Z,16.50
2023-04-14T12:48:48.376Z,16.40
2023-04-14T12:51:16.757Z,16.50
2023-04-14T12:53:44.476Z,16.50
2023-04-14T12:56:17.472Z,16.60
2023-04-14T12:58:48.570Z,16.80
2023-04-14T13:01:18.106Z,16.90
2023-04-14T13:03:52.517Z,16.90
2023-04-14T13:08:51.125Z,17.10
2023-04-14T13:13:48.429Z,17.30
2023-04-14T13:16:21.120Z,17.40
2023-04-14T13:18:48.590Z,17.50
2023-04-14T13:21:17.734Z,17.50
2023-04-14T13:23:46.971Z,17.50
2023-04-14T13:26:13.787Z,17.50
2023-04-14T13:28:42.675Z,17.50
2023-04-14T13:31:13.248Z,17.20
2023-04-14T13:33:42.389Z,17.20
2023-04-14T13:36:09.222Z,17.00
2023-04-14T13:38:38.222Z,16.90
2023-04-14T13:41:05.055Z,16.70
2023-04-14T13:43:33.054Z,16.80
2023-04-14T13:46:00.085Z,16.60
2023-04-14T13:48:30.528Z,16.60
2023-04-14T13:53:26.282Z,16.70
2023-04-14T13:55:57.996Z,16.70
2023-04-14T13:58:25.450Z,16.70
2023-04-14T14:00:55.380Z,16.70
2023-04-14T14:03:22.571Z,16.70
2023-04-14T14:05:49.552Z,16.60
2023-04-14T14:10:46.244Z,16.30
2023-04-14T14:13:13.168Z,16.80
2023-04-14T14:15:39.981Z,16.80
2023-04-14T14:18:07.058Z,16.80
2023-04-14T14:20:36.438Z,16.70
2023-04-14T14:23:03.404Z,16.70
2023-04-14T14:25:32.659Z,16.70
2023-04-14T14:28:01.867Z,16.70
2023-04-14T14:33:03.079Z,16.10
2023-04-14T14:35:29.926Z,16.20
2023-04-14T14:37:59.620Z,16.50
2023-04-14T14:40:28.324Z,16.60
2023-04-14T14:45:30.287Z,16.50
2023-04-14T14:48:00.630Z,16.50
2023-04-14T14:52:57.251Z,16.50
2023-04-14T15:02:48.701Z,16.20
2023-04-14T15:05:15.697Z,16.50
2023-04-14T15:07:45.234Z,16.20
2023-04-14T15:10:12.028Z,16.40
2023-04-14T15:12:38.880Z,16.30
2023-04-14T15:15:07.466Z,16.40
2023-04-14T15:17:34.642Z,16.40
2023-04-14T15:20:04.619Z,16.00
2023-04-14T15:29:54.707Z,15.70
2023-04-14T15:34:54.362Z,16.10
2023-04-14T15:39:53.104Z,15.90
2023-04-14T15:42:22.106Z,16.80
2023-04-14T15:44:50.383Z,17.00
2023-04-14T15:47:19.459Z,15.70
2023-04-14T15:52:21.646Z,15.40
2023-04-14T15:54:48.385Z,15.60
2023-04-14T15:59:46.262Z,15.50
2023-04-14T16:07:07.721Z,15.00
2023-04-14T16:09:35.324Z,16.10
2023-04-14T16:14:32.455Z,15.30
2023-04-14T16:16:59.194Z,15.90
2023-04-14T16:19:28.315Z,15.00
2023-04-14T16:29:21.320Z,15.10
2023-04-14T16:31:48.120Z,15.00
2023-04-14T16:36:46.526Z,14.90
2023-04-14T16:44:07.908Z,14.80
2023-04-14T16:49:04.283Z,14.50
2023-04-14T16:51:33.689Z,14.60
2023-04-14T16:54:00.612Z,14.40
2023-04-14T16:58:54.916Z,14.30
2023-04-14T17:06:18.611Z,14.10
2023-04-14T17:08:45.597Z,14.20
2023-04-14T17:11:12.323Z,14.00
2023-04-14T17:16:09.626Z,14.10
2023-04-14T17:18:38.742Z,14.20
2023-04-14T17:21:06.246Z,15.00
2023-04-14T17:23:37.318Z,13.90
2023-04-14T17:26:04.508Z,14.10
2023-04-14T17:33:27.823Z,13.90
2023-04-14T17:38:22.416Z,13.50
2023-04-14T17:43:17.485Z,13.60
2023-04-14T17:48:22.297Z,13.40
2023-04-14T17:53:31.515Z,13.40
2023-04-14T17:56:00.892Z,13.20
2023-04-14T17:58:27.974Z,13.30
2023-04-14T18:00:57.467Z,13.30
2023-04-14T18:03:24.438Z,13.10
2023-04-14T18:05:56.562Z,12.80
2023-04-14T18:08:23.467Z,13.00
2023-04-14T18:10:50.559Z,13.10
2023-04-14T18:13:18.057Z,13.10
2023-04-14T18:15:49.007Z,13.20
2023-04-14T18:20:45.298Z,13.20
2023-04-14T18:30:38.920Z,12.50
2023-04-14T18:40:28.017Z,12.50
2023-04-14T18:42:57.464Z,12.60
2023-04-14T18:47:53.990Z,12.80
2023-04-14T18:52:49.222Z,13.30
2023-04-14T19:00:13.417Z,12.40
2023-04-14T19:02:44.816Z,12.50
2023-04-14T19:07:38.883Z,12.40
2023-04-14T19:10:08.570Z,12.50
2023-04-14T19:15:07.866Z,12.20
2023-04-14T19:17:34.767Z,12.30
2023-04-14T19:20:04.625Z,12.40
2023-04-14T19:22:35.999Z,11.80
2023-04-14T19:25:02.805Z,11.80
2023-04-14T19:27:33.124Z,13.60
2023-04-14T19:30:03.725Z,12.30
2023-04-14T19:32:33.408Z,12.70
2023-04-14T19:37:28.511Z,12.20
2023-04-14T19:39:59.943Z,12.40
2023-04-14T19:42:26.746Z,12.30
2023-04-14T19:47:21.028Z,12.00
2023-04-14T19:49:48.054Z,12.00
2023-04-14T19:52:17.424Z,11.90
2023-04-14T19:57:11.488Z,12.10
2023-04-14T19:59:38.227Z,12.00
2023-04-14T20:02:05.874Z,12.00
2023-04-14T20:04:32.899Z,12.00
2023-04-14T20:06:59.748Z,12.00
2023-04-14T20:09:26.485Z,12.00
2023-04-14T20:11:57.773Z,12.00
2023-04-14T20:14:24.614Z,12.00
2023-04-14T20:19:18.633Z,12.00
2023-04-14T20:24:13.489Z,11.80
2023-04-14T20:29:10.461Z,12.00
2023-04-14T20:34:06.297Z,11.90
2023-04-14T20:36:35.980Z,11.80
2023-04-14T20:41:33.776Z,11.80
2023-04-14T20:44:00.738Z,11.90
2023-04-14T20:46:28.063Z,11.60
2023-04-14T20:51:22.727Z,11.70
2023-04-14T20:53:50.276Z,11.60
2023-04-14T20:58:49.254Z,11.30
2023-04-14T21:01:16.671Z,11.80
2023-04-14T21:06:12.970Z,11.50
2023-04-14T21:11:17.000Z,11.60
2023-04-14T21:15:30.207Z,11.50
2023-04-14T21:16:38.015Z,11.70
2023-04-14T21:19:05.609Z,11.70
2023-04-14T21:28:57.907Z,11.70
2023-04-14T21:31:24.716Z,11.20
2023-04-14T21:33:53.660Z,11.60
2023-04-14T21:43:45.200Z,11.70
2023-04-14T21:46:14.797Z,11.50
2023-04-14T21:51:11.319Z,11.50
2023-04-14T21:56:10.365Z,11.20
2023-04-14T22:01:10.725Z,11.30
2023-04-14T22:03:40.614Z,11.50
2023-04-14T22:06:07.833Z,11.50
2023-04-14T22:11:04.856Z,12.30
2023-04-14T22:18:28.759Z,11.40
2023-04-14T22:21:00.131Z,11.40
2023-04-14T22:23:29.761Z,11.30
2023-04-14T22:25:58.945Z,11.40
2023-04-14T22:28:28.095Z,11.30
2023-04-14T22:30:57.229Z,11.20
2023-04-14T22:33:26.681Z,11.40
2023-04-14T22:35:53.620Z,11.30
2023-04-14T22:38:20.725Z,11.40
2023-04-14T22:40:48.793Z,11.30
2023-04-14T22:48:11.596Z,11.30
2023-04-14T22:53:05.792Z,11.20
2023-04-14T22:55:32.912Z,11.10
2023-04-14T22:58:02.589Z,11.70
2023-04-14T23:05:26.360Z,11.40
2023-04-14T23:07:53.107Z,10.70
2023-04-14T23:10:20.289Z,10.80
2023-04-14T23:12:49.443Z,11.10
2023-04-14T23:15:18.781Z,11.10
2023-04-14T23:20:15.681Z,11.30
2023-04-14T23:22:42.898Z,11.30
2023-04-14T23:25:12.205Z,11.90
2023-04-14T23:27:41.154Z,11.30
2023-04-14T23:30:08.868Z,11.20
2023-04-14T23:32:35.963Z,11.10
2023-04-14T23:35:05.231Z,11.10
2023-04-14T23:40:01.307Z,11.00
2023-04-14T23:42:28.089Z,11.10
2023-04-14T23:47:22.746Z,11.00
2023-04-14T23:52:18.937Z,11.80
2023-04-14T23:54:48.312Z,10.80
2023-04-14T23:59:43.190Z,11.00
